EDW55 SKBO-LSZH
Flight info
| Callsign | EDW55 |
|---|---|
| Flight time | N/A |
| Altitude | 33000 |
| Route | OSUSU4R OSUSU DCT KOVBU UW1 ENPUT UG431 ALCOT UL325 PJG UM576 MILOK M576 PORQE/N0487F350 M576 OBIKE/M083F350 M576 RKDIA DCT 24N055W 28N050W 31N045W/M083F370 34N039W 37N033W 40N027W 42N020W/M083F390 DCT KOPAS/N0479F380 DCT BERUX/N0474F390 DCT SOSOV/N0471F400 DCT INCEF DCT GALOF DCT TUDRA DCT ENUPA DCT LUSAR DCT BERSU |
| Aircraft | A343/H-SDE2E3FGHIJ4J5M1RWXY/LB1D1 |
Departure
| Time | 2026-05-08 04:43 |
|---|---|
| Airport | El Dorado International Airport (SKBO) |
Arrival
| Time | N/A |
|---|---|
| Airport | Zürich Airport (LSZH) |
| Time | Latitude | Longitude | Altitude | Speed | Heading |
|---|---|---|---|---|---|
| 2026-05-08 04:27 | 4.70197 | -74.14485 | 8374 ft | 0 kts | 216° |
| 2026-05-08 04:30 | 4.70195 | -74.14486 | 8373 ft | 1 kts | 217° |
| 2026-05-08 04:31 | 4.70186 | -74.14494 | 8377 ft | 3 kts | 217° |
| 2026-05-08 04:31 | 4.70158 | -74.14514 | 8373 ft | 6 kts | 217° |
| 2026-05-08 04:31 | 4.70120 | -74.14543 | 8374 ft | 7 kts | 217° |
| 2026-05-08 04:31 | 4.70078 | -74.14574 | 8374 ft | 8 kts | 217° |
| 2026-05-08 04:32 | 4.70036 | -74.14606 | 8376 ft | 8 kts | 217° |
| 2026-05-08 04:32 | 4.69991 | -74.14640 | 8373 ft | 9 kts | 217° |
| 2026-05-08 04:32 | 4.69933 | -74.14683 | 8375 ft | 11 kts | 216° |
| 2026-05-08 04:32 | 4.69874 | -74.14728 | 8374 ft | 11 kts | 217° |
| 2026-05-08 04:33 | 4.69798 | -74.14785 | 8373 ft | 15 kts | 217° |
| 2026-05-08 04:33 | 4.69712 | -74.14782 | 8374 ft | 12 kts | 136° |
| 2026-05-08 04:33 | 4.69663 | -74.14714 | 8373 ft | 12 kts | 127° |
| 2026-05-08 04:33 | 4.69613 | -74.14650 | 8376 ft | 11 kts | 127° |
| 2026-05-08 04:34 | 4.69564 | -74.14586 | 8373 ft | 13 kts | 129° |
| 2026-05-08 04:34 | 4.69505 | -74.14510 | 8374 ft | 15 kts | 127° |
| 2026-05-08 04:34 | 4.69439 | -74.14423 | 8372 ft | 16 kts | 127° |
| 2026-05-08 04:34 | 4.69372 | -74.14335 | 8373 ft | 15 kts | 127° |
| 2026-05-08 04:35 | 4.69301 | -74.14242 | 8374 ft | 20 kts | 127° |
| 2026-05-08 04:35 | 4.69212 | -74.14125 | 8374 ft | 20 kts | 128° |
| 2026-05-08 04:35 | 4.69109 | -74.14114 | 8374 ft | 10 kts | 211° |
| 2026-05-08 04:35 | 4.69106 | -74.14116 | 8374 ft | 0 kts | 211° |
| 2026-05-08 04:36 | 4.69091 | -74.14126 | 8373 ft | 5 kts | 213° |
| 2026-05-08 04:36 | 4.69064 | -74.14145 | 8375 ft | 4 kts | 216° |
| 2026-05-08 04:36 | 4.69036 | -74.14182 | 8376 ft | 12 kts | 247° |
| 2026-05-08 04:36 | 4.69048 | -74.14260 | 8376 ft | 11 kts | 301° |
| 2026-05-08 04:37 | 4.69099 | -74.14329 | 8373 ft | 17 kts | 307° |
| 2026-05-08 04:37 | 4.69196 | -74.14458 | 8372 ft | 29 kts | 307° |
| 2026-05-08 04:37 | 4.69340 | -74.14648 | 8371 ft | 39 kts | 307° |
| 2026-05-08 04:37 | 4.69526 | -74.14892 | 8373 ft | 49 kts | 308° |
| 2026-05-08 04:38 | 4.69739 | -74.15169 | 8374 ft | 50 kts | 308° |
| 2026-05-08 04:38 | 4.69941 | -74.15430 | 8377 ft | 45 kts | 308° |
| 2026-05-08 04:38 | 4.70124 | -74.15673 | 8373 ft | 42 kts | 305° |
| 2026-05-08 04:38 | 4.70290 | -74.15899 | 8374 ft | 38 kts | 309° |
| 2026-05-08 04:39 | 4.70449 | -74.16095 | 8373 ft | 35 kts | 304° |
| 2026-05-08 04:39 | 4.70596 | -74.16305 | 8377 ft | 41 kts | 306° |
| 2026-05-08 04:39 | 4.70772 | -74.16540 | 8376 ft | 42 kts | 308° |
| 2026-05-08 04:39 | 4.70940 | -74.16761 | 8372 ft | 38 kts | 307° |
| 2026-05-08 04:40 | 4.71059 | -74.16884 | 8372 ft | 6 kts | 294° |
| 2026-05-08 04:40 | 4.71058 | -74.16902 | 8373 ft | 2 kts | 233° |
| 2026-05-08 04:40 | 4.71040 | -74.16897 | 8372 ft | 3 kts | 147° |
| 2026-05-08 04:40 | 4.71031 | -74.16884 | 8372 ft | 0 kts | 125° |
| 2026-05-08 04:42 | 4.70940 | -74.16759 | 8372 ft | 45 kts | 127° |
| 2026-05-08 04:42 | 4.70663 | -74.16399 | 8374 ft | 85 kts | 127° |
| 2026-05-08 04:42 | 4.70229 | -74.15826 | 8371 ft | 121 kts | 127° |
| 2026-05-08 04:43 | 4.69655 | -74.15067 | 8373 ft | 152 kts | 127° |
| 2026-05-08 04:43 | 4.68981 | -74.14149 | 8389 ft | 179 kts | 125° |
| 2026-05-08 04:43 | 4.68218 | -74.13176 | 8875 ft | 168 kts | 128° |
| 2026-05-08 04:43 | 4.67523 | -74.12308 | 9412 ft | 156 kts | 128° |
| 2026-05-08 04:44 | 4.66849 | -74.11445 | 9657 ft | 164 kts | 127° |
| 2026-05-08 04:44 | 4.66155 | -74.10445 | 9710 ft | 183 kts | 122° |
| 2026-05-08 04:44 | 4.65750 | -74.09215 | 9821 ft | 195 kts | 84° |
| 2026-05-08 04:44 | 4.66370 | -74.07997 | 9951 ft | 208 kts | 39° |
| 2026-05-08 04:45 | 4.67749 | -74.07524 | 10095 ft | 222 kts | 356° |
| 2026-05-08 04:45 | 4.69276 | -74.07909 | 10304 ft | 233 kts | 341° |
| 2026-05-08 04:45 | 4.70886 | -74.08275 | 10536 ft | 243 kts | 355° |
| 2026-05-08 04:45 | 4.72612 | -74.08247 | 10780 ft | 254 kts | 9° |
| 2026-05-08 04:46 | 4.74389 | -74.07892 | 10979 ft | 268 kts | 16° |
| 2026-05-08 04:46 | 4.76216 | -74.07314 | 11211 ft | 282 kts | 20° |
| 2026-05-08 04:46 | 4.78089 | -74.06611 | 11545 ft | 292 kts | 20° |
| 2026-05-08 04:46 | 4.80043 | -74.05954 | 11886 ft | 302 kts | 19° |
| 2026-05-08 04:47 | 4.82092 | -74.05294 | 12134 ft | 315 kts | 19° |
| 2026-05-08 04:47 | 4.84194 | -74.04607 | 12359 ft | 328 kts | 19° |
| 2026-05-08 04:47 | 4.86402 | -74.03879 | 12590 ft | 340 kts | 19° |
| 2026-05-08 04:47 | 4.88684 | -74.03113 | 12822 ft | 353 kts | 19° |
| 2026-05-08 04:48 | 4.91052 | -74.02312 | 13039 ft | 364 kts | 20° |
| 2026-05-08 04:48 | 4.93496 | -74.01483 | 13256 ft | 375 kts | 20° |
| 2026-05-08 04:48 | 4.96006 | -74.00633 | 13486 ft | 384 kts | 20° |
| 2026-05-08 04:48 | 4.98557 | -73.99769 | 13861 ft | 389 kts | 20° |
| 2026-05-08 04:49 | 5.01128 | -73.98899 | 14286 ft | 391 kts | 20° |
| 2026-05-08 04:49 | 5.03735 | -73.98072 | 14648 ft | 396 kts | 16° |
| 2026-05-08 04:49 | 5.06428 | -73.97413 | 15004 ft | 399 kts | 14° |
| 2026-05-08 04:49 | 5.09143 | -73.96778 | 15393 ft | 402 kts | 14° |
| 2026-05-08 04:50 | 5.11878 | -73.96125 | 15777 ft | 405 kts | 14° |
| 2026-05-08 04:50 | 5.14627 | -73.95457 | 16139 ft | 407 kts | 15° |
| 2026-05-08 04:50 | 5.17384 | -73.94780 | 16536 ft | 410 kts | 15° |
| 2026-05-08 04:50 | 5.20123 | -73.94103 | 16890 ft | 413 kts | 15° |
| 2026-05-08 04:51 | 5.22922 | -73.93409 | 17270 ft | 415 kts | 15° |
| 2026-05-08 04:51 | 5.25711 | -73.92618 | 17671 ft | 417 kts | 20° |
| 2026-05-08 04:51 | 5.28433 | -73.91594 | 18017 ft | 419 kts | 23° |
| 2026-05-08 04:51 | 5.31130 | -73.90441 | 18401 ft | 422 kts | 25° |
| 2026-05-08 04:52 | 5.33810 | -73.89230 | 18760 ft | 424 kts | 25° |
| 2026-05-08 04:52 | 5.36503 | -73.87995 | 19093 ft | 426 kts | 25° |
| 2026-05-08 04:52 | 5.39216 | -73.86755 | 19437 ft | 428 kts | 25° |
| 2026-05-08 04:52 | 5.41942 | -73.85522 | 19733 ft | 430 kts | 25° |
| 2026-05-08 04:53 | 5.44682 | -73.84295 | 20074 ft | 432 kts | 25° |
| 2026-05-08 04:53 | 5.47438 | -73.83068 | 20422 ft | 434 kts | 24° |
| 2026-05-08 04:53 | 5.50206 | -73.81841 | 20773 ft | 436 kts | 24° |
| 2026-05-08 04:53 | 5.52951 | -73.80627 | 21121 ft | 437 kts | 24° |
| 2026-05-08 04:54 | 5.55742 | -73.79393 | 21484 ft | 438 kts | 24° |
| 2026-05-08 04:54 | 5.58536 | -73.78158 | 21839 ft | 439 kts | 24° |
| 2026-05-08 04:54 | 5.61341 | -73.76917 | 22203 ft | 440 kts | 24° |
| 2026-05-08 04:54 | 5.64150 | -73.75673 | 22568 ft | 441 kts | 24° |
| 2026-05-08 04:55 | 5.66958 | -73.74430 | 22955 ft | 441 kts | 24° |
| 2026-05-08 04:55 | 5.69769 | -73.73185 | 23338 ft | 442 kts | 24° |
| 2026-05-08 04:55 | 5.72583 | -73.71938 | 23693 ft | 442 kts | 24° |
| 2026-05-08 04:55 | 5.75402 | -73.70689 | 24046 ft | 442 kts | 24° |
| 2026-05-08 04:56 | 5.78221 | -73.69440 | 24364 ft | 442 kts | 24° |
| 2026-05-08 04:56 | 5.80999 | -73.68209 | 24684 ft | 443 kts | 24° |
| 2026-05-08 04:56 | 5.83815 | -73.66960 | 25008 ft | 443 kts | 24° |
| 2026-05-08 04:56 | 5.86635 | -73.65710 | 25307 ft | 443 kts | 24° |
| 2026-05-08 04:57 | 5.89457 | -73.64459 | 25665 ft | 443 kts | 24° |
| 2026-05-08 04:57 | 5.92276 | -73.63209 | 26002 ft | 443 kts | 24° |
| 2026-05-08 04:57 | 5.95092 | -73.61958 | 26359 ft | 442 kts | 24° |
| 2026-05-08 04:57 | 5.97836 | -73.60560 | 26706 ft | 442 kts | 28° |
| 2026-05-08 04:58 | 6.00536 | -73.59085 | 27013 ft | 441 kts | 28° |
| 2026-05-08 04:58 | 6.03216 | -73.57587 | 27368 ft | 440 kts | 29° |
| 2026-05-08 04:58 | 6.05878 | -73.56080 | 27740 ft | 439 kts | 29° |
| 2026-05-08 04:58 | 6.08527 | -73.54572 | 28108 ft | 437 kts | 29° |
| 2026-05-08 04:59 | 6.11182 | -73.53060 | 28445 ft | 437 kts | 29° |
| 2026-05-08 04:59 | 6.13833 | -73.51550 | 28533 ft | 441 kts | 29° |
| 2026-05-08 04:59 | 6.16523 | -73.50022 | 28648 ft | 446 kts | 29° |
| 2026-05-08 04:59 | 6.19224 | -73.48488 | 28893 ft | 447 kts | 29° |
| 2026-05-08 05:00 | 6.21934 | -73.46950 | 29229 ft | 446 kts | 28° |
| 2026-05-08 05:00 | 6.24633 | -73.45420 | 29554 ft | 444 kts | 29° |
| 2026-05-08 05:00 | 6.27273 | -73.43922 | 29854 ft | 443 kts | 28° |
| 2026-05-08 05:00 | 6.29966 | -73.42395 | 30192 ft | 441 kts | 28° |
| 2026-05-08 05:01 | 6.32630 | -73.40883 | 30472 ft | 439 kts | 29° |
| 2026-05-08 05:01 | 6.35284 | -73.39378 | 30773 ft | 437 kts | 28° |
| 2026-05-08 05:01 | 6.37923 | -73.37880 | 31075 ft | 434 kts | 28° |
| 2026-05-08 05:01 | 6.40545 | -73.36391 | 31384 ft | 431 kts | 28° |
| 2026-05-08 05:02 | 6.43148 | -73.34914 | 31656 ft | 428 kts | 28° |
| 2026-05-08 05:02 | 6.45733 | -73.33446 | 31965 ft | 425 kts | 28° |
| 2026-05-08 05:02 | 6.48298 | -73.31989 | 32271 ft | 421 kts | 28° |
| 2026-05-08 05:02 | 6.50839 | -73.30546 | 32587 ft | 417 kts | 28° |
| 2026-05-08 05:03 | 6.53362 | -73.29112 | 32759 ft | 417 kts | 28° |
| 2026-05-08 05:03 | 6.55903 | -73.27670 | 32753 ft | 421 kts | 28° |
| 2026-05-08 05:03 | 6.61062 | -73.24740 | 32767 ft | 430 kts | 28° |
| 2026-05-08 05:04 | 6.66333 | -73.21746 | 32787 ft | 439 kts | 28° |
| 2026-05-08 05:04 | 6.71706 | -73.18691 | 32804 ft | 448 kts | 28° |
| 2026-05-08 05:05 | 6.76240 | -73.16114 | 32969 ft | 451 kts | 28° |
| 2026-05-08 05:05 | 6.82640 | -73.12474 | 33051 ft | 459 kts | 28° |
| 2026-05-08 05:06 | 6.87342 | -73.09799 | 33028 ft | 467 kts | 29° |
| 2026-05-08 05:06 | 6.93067 | -73.06591 | 33069 ft | 475 kts | 28° |
| 2026-05-08 05:07 | 6.98938 | -73.03381 | 33069 ft | 484 kts | 28° |
| 2026-05-08 05:07 | 7.04867 | -73.00139 | 33067 ft | 492 kts | 28° |